Aérodrome :
LOGIN :

S'inscrire | Disclaimer

   EN    FR    IT 

 










Légende :    VFR   VFR Marginal   IFR   IFR Intensif   IFR Très Intensif
Visi : 
Plafond : 
>= 8 km
>= 3000ft
5 à 8 km
1000 à 3000 ft
1500m à 5 km
500 à 1000 ft
800 à 1500m
200 à 500 ft
< 800m
< 200 ft
Symboles :   Orages  Brouillard  Fortes neiges  Fortes précipitations  Vent > 20 kt
SIGMETs :   Divers  Orages  Givrage  Turbulence  Onde Orograph.  Cendres Volcan.






- Altitude de l'aérodrome : 529 ft
- Code IATA : CHR


LFLX - Chateauroux

DERNIER METAR :
  • 141100Z AUTO 07015KT 030V100 CAVOK 10/M03 Q1027 TEMPO 06015G25KT

METARs EXPIRÉS :
  • 141030Z AUTO 06017KT 030V090 CAVOK 10/M03 Q1027 TEMPO 06015G25KT
  • 141000Z AUTO 06016KT CAVOK 09/M02 Q1028 TEMPO 06015G25KT
  • 140930Z AUTO 06013KT 030V090 CAVOK 09/M02 Q1028 TEMPO 06015G25KT
  • 140900Z AUTO 06013KT CAVOK 08/M01 Q1028 TEMPO 06015G25KT
  • 140830Z AUTO 06010KT CAVOK 07/M01 Q1028 TEMPO 06015G25KT

TAF TAF LFLX
Valide du 14 à 06h jusqu'au 15 à 12h UTC


140500Z 1406/1512 05010KT CAVOK
TEMPO 1409/1417 06015G25KT



MET'MAP, la Météo Aéronautique d'un coup d'oeil ! - Copyright ORBIFLY Décembre 2007 - Disclaimer

ORBIFLY MET'MAP TEAM :

Programmation & Développement : Alexandra Zaïnal
Sur une idée originale de : Baudouin d'Aumeries
Assistance à la programmation : Marc-Olivier Méhu
Soutien technique & logistique : Manuel Goepfert

Contact : metmap@orbifly.com




SOURCES & CREDITS :

   NOAA